Time;durP1;ratioP1;P1;durP2;ratioP2;P2;SDS_P1;SDS_P2;PMS_P1;PMS_P2;Temp;Humidity;BMP_temperature;BMP_pressure;BME280_temperature;BME280_humidity;BME280_pressure;Samples;Min_cycle;Max_cycle;Signal;HPM_P1;HPM_P2
2024/04/23 00:00:06;;;;;;;4.32;1.58;;;2.00;99.90;;;;;;5344771;26;19992;-85
2024/04/23 00:02:32;;;;;;;3.20;1.50;;;2.00;99.90;;;;;;5338464;26;20008;-86
2024/04/23 00:04:57;;;;;;;3.45;1.30;;;1.90;99.90;;;;;;5336868;26;20001;-85
2024/04/23 00:07:23;;;;;;;4.55;1.70;;;1.90;99.90;;;;;;5373066;26;19997;-85
2024/04/23 00:09:49;;;;;;;5.07;1.50;;;1.90;99.90;;;;;;5342162;26;20044;-83
2024/04/23 00:12:14;;;;;;;3.58;1.27;;;1.90;99.90;;;;;;5327586;26;20002;-85
2024/04/23 00:14:40;;;;;;;4.97;1.85;;;1.90;99.90;;;;;;5317373;26;20005;-86
2024/04/23 00:17:06;;;;;;;2.97;1.35;;;1.80;99.90;;;;;;5335095;26;20020;-85
2024/04/23 00:19:32;;;;;;;2.58;1.40;;;1.80;99.90;;;;;;5367706;26;20004;-85
2024/04/23 00:21:58;;;;;;;4.68;1.80;;;1.80;99.90;;;;;;5337882;26;20443;-85
2024/04/23 00:24:24;;;;;;;6.13;2.08;;;1.80;99.90;;;;;;5344441;26;20013;-85
2024/04/23 00:26:53;;;;;;;4.18;1.80;;;1.80;99.90;;;;;;5341854;26;20005;-85
2024/04/23 00:29:18;;;;;;;5.05;1.88;;;1.70;99.90;;;;;;5344438;26;20015;-85
2024/04/23 00:31:44;;;;;;;3.45;1.80;;;1.80;99.90;;;;;;5338579;26;20009;-85
2024/04/23 00:34:10;;;;;;;3.88;2.10;;;1.80;99.90;;;;;;5344908;26;20083;-86
2024/04/23 00:36:35;;;;;;;3.72;1.80;;;1.80;99.90;;;;;;5344582;26;20020;-85
2024/04/23 00:39:01;;;;;;;4.28;1.88;;;1.80;99.90;;;;;;5333507;26;20028;-85
2024/04/23 00:41:26;;;;;;;5.20;1.70;;;1.80;99.90;;;;;;5370273;26;20056;-85
2024/04/23 00:43:53;;;;;;;6.55;2.10;;;1.90;99.90;;;;;;5322860;26;20017;-85
2024/04/23 00:46:21;;;;;;;4.70;2.28;;;1.90;99.90;;;;;;5339135;26;20461;-84
2024/04/23 00:48:47;;;;;;;7.68;2.20;;;1.90;99.90;;;;;;5341351;26;20016;-84
2024/04/23 00:51:14;;;;;;;4.97;2.85;;;1.90;99.90;;;;;;5347873;26;20005;-85
2024/04/23 00:53:40;;;;;;;6.88;2.40;;;1.90;99.90;;;;;;5339126;26;19997;-85
2024/04/23 00:56:06;;;;;;;5.97;2.22;;;1.90;99.90;;;;;;5338381;26;20021;-84
2024/04/23 00:58:32;;;;;;;6.28;2.67;;;1.80;99.90;;;;;;5375979;26;20000;-85
2024/04/23 01:00:59;;;;;;;8.98;3.00;;;1.80;99.90;;;;;;5334637;26;20016;-85
2024/04/23 01:03:25;;;;;;;5.82;2.20;;;1.80;99.90;;;;;;5323543;26;20138;-85
2024/04/23 01:05:50;;;;;;;5.65;3.00;;;1.80;99.90;;;;;;5354057;26;20001;-85
2024/04/23 01:08:16;;;;;;;6.85;2.90;;;1.80;99.90;;;;;;5348812;26;20081;-83
2024/04/23 01:10:42;;;;;;;6.03;3.17;;;1.80;99.90;;;;;;5348294;26;20009;-85
2024/04/23 01:13:08;;;;;;;8.45;3.72;;;1.80;99.90;;;;;;5346818;26;20015;-84
2024/04/23 01:15:36;;;;;;;6.40;3.53;;;1.80;99.90;;;;;;5346382;26;19998;-84
2024/04/23 01:18:04;;;;;;;7.38;2.85;;;1.70;99.90;;;;;;5343737;26;20055;-84
2024/04/23 01:20:31;;;;;;;5.68;2.30;;;1.70;99.90;;;;;;5341676;26;20480;-83
2024/04/23 01:23:11;;;;;;;7.38;2.95;;;1.70;99.90;;;;;;5374460;26;20344;-84
2024/04/23 01:25:42;;;;;;;6.15;3.00;;;1.70;99.90;;;;;;5346229;26;19997;-84
2024/04/23 01:28:08;;;;;;;6.20;2.90;;;1.60;99.90;;;;;;5338782;26;20020;-84
2024/04/23 01:30:34;;;;;;;6.88;3.38;;;1.60;99.90;;;;;;5347570;26;20005;-83
2024/04/23 01:33:02;;;;;;;15.35;3.28;;;1.60;99.90;;;;;;5337618;26;20013;-84
2024/04/23 01:35:28;;;;;;;7.43;3.05;;;1.50;99.90;;;;;;5332980;26;20034;-84
2024/04/23 01:37:56;;;;;;;6.55;3.70;;;1.50;99.90;;;;;;5332040;26;20071;-84
2024/04/23 01:40:25;;;;;;;8.77;4.00;;;1.40;99.90;;;;;;5340340;26;20008;-82
2024/04/23 01:42:51;;;;;;;8.82;3.83;;;1.30;99.90;;;;;;5336104;26;19997;-84
2024/04/23 01:45:16;;;;;;;6.82;3.08;;;1.30;99.90;;;;;;5322506;26;20013;-84
2024/04/23 01:47:46;;;;;;;9.75;3.72;;;1.20;99.90;;;;;;5341779;26;20055;-84
2024/04/23 01:50:12;;;;;;;6.72;3.28;;;1.20;99.90;;;;;;5345127;26;19993;-84
2024/04/23 01:52:38;;;;;;;5.75;3.38;;;1.20;99.90;;;;;;5339585;26;20010;-84
2024/04/23 01:55:05;;;;;;;6.32;3.35;;;1.10;99.90;;;;;;5325828;26;20013;-84
2024/04/23 01:57:31;;;;;;;6.85;3.15;;;1.10;99.90;;;;;;5372794;26;20443;-84
2024/04/23 02:00:08;;;;;;;8.02;3.70;;;1.00;99.90;;;;;;5331483;26;20080;-84
2024/04/23 02:02:37;;;;;;;6.68;3.35;;;1.10;99.90;;;;;;5344643;26;20008;-84
2024/04/23 02:05:03;;;;;;;9.35;3.53;;;1.00;99.90;;;;;;5338551;26;20005;-84
2024/04/23 02:07:30;;;;;;;5.97;3.00;;;1.00;99.90;;;;;;5345687;26;20001;-84
2024/04/23 02:09:56;;;;;;;6.75;3.47;;;1.00;99.90;;;;;;5374424;26;20000;-84
2024/04/23 02:12:23;;;;;;;6.38;3.40;;;1.00;99.90;;;;;;5337681;26;20012;-82
2024/04/23 02:14:48;;;;;;;9.73;3.28;;;1.00;99.90;;;;;;5349432;26;20001;-84
2024/04/23 02:17:14;;;;;;;8.98;3.28;;;0.90;99.90;;;;;;5373203;26;20136;-84
2024/04/23 02:19:40;;;;;;;6.95;3.25;;;1.00;99.90;;;;;;5322294;26;20041;-84
2024/04/23 02:22:06;;;;;;;8.25;4.05;;;0.90;99.90;;;;;;5342807;26;20013;-84
2024/04/23 02:24:31;;;;;;;7.82;3.47;;;0.90;99.90;;;;;;5342646;26;20452;-84
2024/04/23 02:26:57;;;;;;;5.70;2.92;;;0.90;99.90;;;;;;5346143;26;20001;-84
2024/04/23 02:29:23;;;;;;;7.82;4.15;;;0.90;99.90;;;;;;5343042;26;20486;-84
2024/04/23 02:31:48;;;;;;;9.48;3.78;;;0.90;99.90;;;;;;5315988;26;20079;-84
2024/04/23 02:34:14;;;;;;;7.60;4.03;;;0.90;99.90;;;;;;5312069;26;20392;-85
2024/04/23 02:36:39;;;;;;;10.38;3.53;;;0.90;99.90;;;;;;5340297;26;20015;-84
2024/04/23 02:39:05;;;;;;;6.68;3.65;;;0.90;99.90;;;;;;5343495;26;20004;-84
2024/04/23 02:41:36;;;;;;;10.35;4.25;;;0.90;99.90;;;;;;5334796;26;20016;-83
2024/04/23 02:44:03;;;;;;;7.07;3.78;;;0.80;99.90;;;;;;5366441;26;20001;-85
2024/04/23 02:46:29;;;;;;;11.63;3.38;;;0.90;99.90;;;;;;5360137;26;20005;-84
2024/04/23 02:48:54;;;;;;;9.35;3.70;;;0.90;99.90;;;;;;5328713;26;20002;-84
2024/04/23 02:51:20;;;;;;;7.65;3.67;;;0.80;99.90;;;;;;5344551;26;20136;-84
2024/04/23 02:53:45;;;;;;;8.07;4.15;;;0.90;99.90;;;;;;5342788;26;20074;-84
2024/04/23 02:56:11;;;;;;;6.88;3.75;;;0.80;99.90;;;;;;5346718;26;20001;-84
2024/04/23 02:58:36;;;;;;;6.85;3.58;;;0.90;99.90;;;;;;5346529;26;20586;-84
2024/04/23 03:01:02;;;;;;;7.35;3.67;;;0.90;99.90;;;;;;5338284;26;20005;-84
2024/04/23 03:03:28;;;;;;;6.93;4.15;;;0.90;99.90;;;;;;5346253;26;20036;-84
2024/04/23 03:05:53;;;;;;;7.18;3.70;;;0.90;99.90;;;;;;5345782;26;20012;-84
2024/04/23 03:08:19;;;;;;;6.35;3.70;;;1.00;99.90;;;;;;5337426;26;20468;-84
2024/04/23 03:10:44;;;;;;;7.78;4.10;;;0.90;99.90;;;;;;5319290;26;19997;-84
2024/04/23 03:13:10;;;;;;;8.40;4.13;;;1.00;99.90;;;;;;5343405;26;20061;-84
2024/04/23 03:15:36;;;;;;;6.28;3.63;;;0.90;99.90;;;;;;5341786;26;20015;-84
2024/04/23 03:18:01;;;;;;;7.20;4.35;;;0.90;99.90;;;;;;5346281;26;20001;-83
2024/04/23 03:20:27;;;;;;;6.50;3.80;;;0.90;99.90;;;;;;5374033;26;19997;-83
2024/04/23 03:22:52;;;;;;;11.48;4.65;;;0.80;99.90;;;;;;5344183;26;20024;-84
2024/04/23 03:25:18;;;;;;;10.70;4.47;;;0.80;99.90;;;;;;5345302;26;20012;-84
2024/04/23 03:27:44;;;;;;;8.23;4.85;;;0.80;99.90;;;;;;5317809;26;20030;-85
2024/04/23 03:30:09;;;;;;;10.82;4.47;;;0.70;99.90;;;;;;5344952;26;20001;-84
2024/04/23 03:32:35;;;;;;;11.68;4.90;;;0.70;99.90;;;;;;5338825;26;20005;-84
2024/04/23 03:35:00;;;;;;;8.65;4.18;;;0.70;99.90;;;;;;5337350;26;20000;-84
2024/04/23 03:37:26;;;;;;;11.23;4.85;;;0.70;99.90;;;;;;5331479;26;20001;-84
2024/04/23 03:39:52;;;;;;;7.20;4.30;;;0.70;99.90;;;;;;5371223;26;20376;-84
2024/04/23 03:42:17;;;;;;;9.32;4.78;;;0.60;99.90;;;;;;5325927;26;20020;-84
2024/04/23 03:44:43;;;;;;;8.05;4.20;;;0.60;99.90;;;;;;5331706;26;20531;-84
2024/04/23 03:47:08;;;;;;;8.82;5.28;;;0.60;99.90;;;;;;5328819;26;20011;-84
2024/04/23 03:49:34;;;;;;;10.43;5.03;;;0.60;99.90;;;;;;5330632;26;20041;-84
2024/04/23 03:52:10;;;;;;;9.63;4.78;;;0.60;99.90;;;;;;5346202;26;20347;-85
2024/04/23 03:54:36;;;;;;;7.80;4.47;;;0.60;99.90;;;;;;5338569;26;20005;-84
2024/04/23 03:57:02;;;;;;;7.63;4.60;;;0.60;99.90;;;;;;5325875;26;19997;-85
2024/04/23 03:59:28;;;;;;;10.50;4.45;;;0.60;99.90;;;;;;5344459;26;20340;-84
2024/04/23 04:06:03;;;;;;;9.40;4.90;;;0.60;99.90;;;;;;5346014;26;20005;-84
2024/04/23 04:07:23;;;;;;;10.02;5.30;;;0.60;99.90;;;;;;5340073;26;20527;-84
2024/04/23 04:09:49;;;;;;;8.52;4.72;;;0.60;99.90;;;;;;5328391;26;20053;-84
2024/04/23 04:12:14;;;;;;;8.73;5.43;;;0.60;99.90;;;;;;5319224;26;20023;-83
2024/04/23 04:14:40;;;;;;;12.82;5.70;;;0.50;99.90;;;;;;5345515;26;20136;-84
2024/04/23 04:17:05;;;;;;;8.95;4.75;;;0.50;99.90;;;;;;5329091;26;20015;-83
2024/04/23 04:19:32;;;;;;;9.75;5.38;;;0.50;99.90;;;;;;5337974;26;20014;-84
2024/04/23 04:21:58;;;;;;;9.63;5.30;;;0.50;99.90;;;;;;5338220;26;20353;-83
2024/04/23 04:24:23;;;;;;;11.20;5.55;;;0.50;99.90;;;;;;5323220;26;20001;-83
2024/04/23 04:26:49;;;;;;;10.23;5.68;;;0.50;99.90;;;;;;5330018;26;20000;-83
2024/04/23 04:29:15;;;;;;;10.43;5.15;;;0.40;99.90;;;;;;5346835;26;20075;-84
2024/04/23 04:31:40;;;;;;;10.48;5.57;;;0.40;99.90;;;;;;5336558;26;20441;-83
2024/04/23 04:34:06;;;;;;;13.77;5.70;;;0.40;99.90;;;;;;5340863;26;20353;-83
2024/04/23 04:36:32;;;;;;;10.98;5.63;;;0.40;99.90;;;;;;5330767;26;20001;-83
2024/04/23 04:38:57;;;;;;;11.30;6.63;;;0.40;99.90;;;;;;5345632;26;20043;-83
2024/04/23 04:41:23;;;;;;;12.23;6.05;;;0.30;99.90;;;;;;5348064;26;20005;-82
2024/04/23 04:43:49;;;;;;;11.77;5.22;;;0.30;99.90;;;;;;5300552;26;20029;-83
2024/04/23 04:46:14;;;;;;;11.50;5.97;;;0.30;99.90;;;;;;5336242;26;19997;-83
2024/04/23 04:48:40;;;;;;;12.73;6.18;;;0.40;99.90;;;;;;5357044;26;20005;-83
2024/04/23 04:51:05;;;;;;;11.23;6.82;;;0.40;99.90;;;;;;5342475;26;20100;-83
2024/04/23 04:53:31;;;;;;;12.82;7.22;;;0.40;99.90;;;;;;5345175;26;20394;-82
2024/04/23 04:55:57;;;;;;;11.07;6.50;;;0.40;99.90;;;;;;5342678;26;19997;-84
2024/04/23 04:58:22;;;;;;;10.60;6.47;;;0.40;99.90;;;;;;5362129;26;20074;-83
2024/04/23 05:00:51;;;;;;;13.63;7.18;;;0.50;99.90;;;;;;5338778;26;20479;-83
2024/04/23 05:03:17;;;;;;;13.95;7.18;;;0.50;99.90;;;;;;5347870;26;20012;-83
2024/04/23 05:05:43;;;;;;;13.60;6.80;;;0.50;99.90;;;;;;5329441;26;20008;-83
2024/04/23 05:08:09;;;;;;;14.65;7.25;;;0.50;99.90;;;;;;5332803;26;20024;-84
2024/04/23 05:10:35;;;;;;;10.43;6.45;;;0.50;99.90;;;;;;5337589;26;20045;-84
2024/04/23 05:13:00;;;;;;;14.35;7.35;;;0.50;99.90;;;;;;5348683;26;20026;-83
2024/04/23 05:15:26;;;;;;;17.15;7.95;;;0.50;99.90;;;;;;5345786;26;20017;-84
2024/04/23 05:17:52;;;;;;;14.13;7.72;;;0.60;99.90;;;;;;5335558;26;19997;-84
2024/04/23 05:20:17;;;;;;;14.57;7.45;;;0.60;99.90;;;;;;5362402;26;20002;-84
2024/04/23 05:22:43;;;;;;;14.93;7.43;;;0.60;99.90;;;;;;5356313;26;19997;-84
2024/04/23 05:25:09;;;;;;;12.95;7.35;;;0.70;99.90;;;;;;5339558;26;20017;-84
2024/04/23 05:27:34;;;;;;;13.68;7.28;;;0.80;99.90;;;;;;5331504;26;20032;-84
2024/04/23 05:30:00;;;;;;;14.68;7.85;;;0.90;99.90;;;;;;5323277;26;20001;-83
2024/04/23 05:35:12;;;;;;;11.63;7.63;;;0.90;99.90;;;;;;5338485;26;20023;-84
2024/04/23 05:37:38;;;;;;;12.32;7.32;;;1.00;99.90;;;;;;5325867;26;20006;-84
2024/04/23 05:40:04;;;;;;;13.98;7.72;;;1.00;99.90;;;;;;5341720;26;20370;-85
2024/04/23 05:42:30;;;;;;;12.73;7.57;;;1.10;99.90;;;;;;5346989;26;20005;-85
2024/04/23 05:44:55;;;;;;;14.57;8.10;;;1.20;99.90;;;;;;5343683;26;20012;-85
2024/04/23 05:47:21;;;;;;;13.82;7.70;;;1.20;99.90;;;;;;5345125;26;20012;-85
2024/04/23 05:50:24;;;;;;;13.93;8.80;;;1.30;99.90;;;;;;5337201;26;20455;-84
2024/04/23 05:53:08;;;;;;;;;;;1.40;99.90;;;;;;5343440;26;20001;-85
2024/04/23 05:55:36;;;;;;;12.65;7.93;;;1.60;99.90;;;;;;5345461;26;19926;-85
2024/04/23 05:58:02;;;;;;;13.77;7.47;;;1.70;99.90;;;;;;5340963;26;20017;-84
2024/04/23 06:00:27;;;;;;;14.68;8.40;;;1.80;99.90;;;;;;5343634;26;20015;-85
2024/04/23 06:02:53;;;;;;;13.15;8.07;;;1.90;99.90;;;;;;5338130;26;20002;-84
2024/04/23 06:05:18;;;;;;;15.98;8.88;;;2.00;99.90;;;;;;5336802;26;20001;-84
2024/04/23 06:07:44;;;;;;;15.65;8.82;;;2.20;99.90;;;;;;5343933;26;20058;-84
2024/04/23 06:10:10;;;;;;;15.25;8.73;;;2.30;99.90;;;;;;5346622;26;20051;-84
2024/04/23 06:12:35;;;;;;;15.05;8.82;;;2.40;99.90;;;;;;5341204;26;20001;-85
2024/04/23 06:15:01;;;;;;;14.93;8.20;;;2.50;99.90;;;;;;5346826;26;20300;-84
2024/04/23 06:17:28;;;;;;;14.05;8.35;;;2.60;99.90;;;;;;5346028;26;20027;-84
2024/04/23 06:19:54;;;;;;;15.60;9.73;;;2.70;99.90;;;;;;5348043;26;20008;-85
2024/04/23 06:22:25;;;;;;;17.58;10.80;;;2.80;99.90;;;;;;5330850;26;20352;-84
2024/04/23 06:24:52;;;;;;;14.82;9.63;;;2.90;99.90;;;;;;5344201;26;20056;-84
2024/04/23 06:27:22;;;;;;;15.75;9.75;;;3.00;99.90;;;;;;5372591;26;20005;-85
2024/04/23 06:29:48;;;;;;;15.60;9.25;;;3.10;99.90;;;;;;5314757;26;20322;-85
2024/04/23 06:32:14;;;;;;;14.90;9.75;;;3.10;99.90;;;;;;5347709;26;20009;-84
2024/04/23 06:34:44;;;;;;;19.63;10.23;;;3.20;99.90;;;;;;5344407;26;20003;-84
2024/04/23 06:37:11;;;;;;;14.30;10.05;;;3.30;99.90;;;;;;5346504;26;20091;-84
2024/04/23 06:39:37;;;;;;;15.93;9.98;;;3.30;99.90;;;;;;5344416;26;20013;-85
2024/04/23 06:42:03;;;;;;;19.08;11.88;;;3.40;99.90;;;;;;5340470;26;20011;-84
2024/04/23 06:44:29;;;;;;;19.88;10.48;;;3.50;99.90;;;;;;5343779;26;20001;-84
2024/04/23 06:46:54;;;;;;;16.60;10.00;;;3.60;99.90;;;;;;5345895;26;20012;-85
2024/04/23 06:49:20;;;;;;;15.75;10.75;;;3.70;99.90;;;;;;5374036;26;20072;-85
2024/04/23 06:51:46;;;;;;;13.82;9.63;;;3.80;99.90;;;;;;5335660;26;20013;-84
2024/04/23 06:54:11;;;;;;;17.00;10.50;;;3.90;99.90;;;;;;5341281;26;20004;-85
2024/04/23 06:56:37;;;;;;;15.40;9.68;;;4.00;99.90;;;;;;5338234;26;20762;-83
2024/04/23 06:59:03;;;;;;;17.40;10.68;;;4.10;99.90;;;;;;5343345;26;20082;-83
2024/04/23 07:01:32;;;;;;;18.52;11.13;;;4.10;99.90;;;;;;5337580;26;20348;-83
2024/04/23 07:03:57;;;;;;;15.95;11.30;;;4.20;99.90;;;;;;5367799;26;20017;-84
2024/04/23 07:06:23;;;;;;;15.25;10.10;;;4.30;99.90;;;;;;5332079;26;20005;-84
2024/04/23 07:08:49;;;;;;;19.73;12.10;;;4.40;99.90;;;;;;5343199;26;20001;-87
2024/04/23 07:11:15;;;;;;;16.98;11.30;;;4.50;99.90;;;;;;5346176;26;20069;-87
2024/04/23 07:13:44;;;;;;;15.95;10.82;;;4.50;99.90;;;;;;5345734;26;20024;-87
2024/04/23 07:16:10;;;;;;;17.20;12.00;;;4.60;99.90;;;;;;5340635;26;20002;-85
2024/04/23 07:18:36;;;;;;;18.60;11.55;;;4.70;99.90;;;;;;5353129;26;20051;-87
2024/04/23 07:21:02;;;;;;;15.43;11.55;;;4.80;99.90;;;;;;5344782;26;19997;-84
2024/04/23 07:23:27;;;;;;;15.25;11.10;;;4.90;99.90;;;;;;5346882;26;20020;-84
2024/04/23 07:25:53;;;;;;;15.07;10.75;;;4.90;99.90;;;;;;5370850;26;20049;-87
2024/04/23 07:28:20;;;;;;;16.10;10.68;;;5.00;99.90;;;;;;5342345;26;20005;-84
2024/04/23 07:30:48;;;;;;;17.75;11.48;;;5.10;99.90;;;;;;5334744;26;20095;-84
2024/04/23 07:33:14;;;;;;;16.23;10.27;;;5.20;99.90;;;;;;5342351;26;20071;-83
2024/04/23 07:35:40;;;;;;;14.88;11.07;;;5.20;99.90;;;;;;5332674;26;20012;-83
2024/04/23 07:38:12;;;;;;;17.13;11.15;;;5.40;99.90;;;;;;5346200;26;20070;-83
2024/04/23 07:40:39;;;;;;;16.63;11.40;;;5.50;99.90;;;;;;5346589;26;20008;-85
2024/04/23 07:43:05;;;;;;;19.02;11.30;;;5.70;99.90;;;;;;5346315;26;20012;-85
2024/04/23 07:45:34;;;;;;;13.48;9.77;;;5.80;99.90;;;;;;5341519;26;19993;-85
2024/04/23 07:48:00;;;;;;;14.15;10.30;;;5.80;99.90;;;;;;5345334;26;19997;-83
2024/04/23 07:50:26;;;;;;;15.45;11.02;;;5.90;99.90;;;;;;5348635;26;20505;-84
2024/04/23 07:52:52;;;;;;;15.35;10.43;;;6.10;99.90;;;;;;5347882;26;20001;-83
2024/04/23 07:55:18;;;;;;;15.93;11.02;;;6.20;99.90;;;;;;5342714;26;19997;-84
2024/04/23 07:57:44;;;;;;;14.48;9.90;;;6.30;99.90;;;;;;5366930;26;20029;-84
2024/04/23 08:00:11;;;;;;;17.13;10.80;;;6.40;99.90;;;;;;5346021;26;20078;-85
2024/04/23 08:02:38;;;;;;;16.27;10.13;;;6.50;99.90;;;;;;5372881;26;20032;-84
2024/04/23 08:05:04;;;;;;;17.90;10.70;;;6.60;99.90;;;;;;5346970;26;20005;-85
2024/04/23 08:07:30;;;;;;;14.38;9.88;;;6.70;99.90;;;;;;5365644;26;20005;-83
2024/04/23 08:09:56;;;;;;;14.43;9.48;;;6.80;99.90;;;;;;5339279;26;20337;-84
2024/04/23 08:12:22;;;;;;;11.65;7.78;;;6.90;99.90;;;;;;5343719;26;19993;-85
2024/04/23 08:14:47;;;;;;;10.13;8.52;;;7.10;99.90;;;;;;5334740;26;20001;-84
2024/04/23 08:17:13;;;;;;;11.05;8.63;;;7.20;99.90;;;;;;5340399;26;20024;-83
2024/04/23 08:19:39;;;;;;;13.73;8.80;;;7.20;99.90;;;;;;5341257;26;20024;-83
2024/04/23 08:22:04;;;;;;;10.00;7.55;;;7.30;99.90;;;;;;5329560;26;20006;-84
2024/04/23 08:24:30;;;;;;;11.93;8.48;;;7.40;99.90;;;;;;5337616;26;20044;-84
2024/04/23 08:26:55;;;;;;;11.32;7.03;;;7.50;99.90;;;;;;5333523;26;20456;-84
2024/04/23 08:29:21;;;;;;;8.93;6.43;;;7.60;99.90;;;;;;5330530;26;20070;-83
2024/04/23 08:31:47;;;;;;;10.20;6.90;;;7.70;99.90;;;;;;5342622;26;20011;-85
2024/04/23 08:34:13;;;;;;;9.57;6.00;;;7.80;99.90;;;;;;5341842;26;20008;-85
2024/04/23 08:36:38;;;;;;;9.00;6.65;;;7.80;99.90;;;;;;5342847;26;20007;-86
2024/04/23 08:39:04;;;;;;;6.68;5.07;;;7.80;99.90;;;;;;5340586;26;20012;-85
2024/04/23 08:41:35;;;;;;;8.30;6.28;;;8.00;99.90;;;;;;5321808;26;20079;-85
2024/04/23 08:44:06;;;;;;;8.48;5.82;;;8.10;99.90;;;;;;5344073;26;20016;-87
2024/04/23 08:46:32;;;;;;;10.13;6.63;;;8.20;99.90;;;;;;5341252;26;20012;-86
2024/04/23 08:48:59;;;;;;;8.75;6.50;;;8.10;99.90;;;;;;5322987;26;20004;-86
2024/04/23 08:51:25;;;;;;;10.20;5.50;;;8.20;99.90;;;;;;5338346;26;20350;-84
2024/04/23 08:53:53;;;;;;;9.05;5.93;;;8.30;99.90;;;;;;5344812;26;20008;-85
2024/04/23 08:56:22;;;;;;;8.25;5.60;;;8.30;99.90;;;;;;5340308;26;19997;-85
2024/04/23 08:58:49;;;;;;;8.20;5.60;;;8.40;99.90;;;;;;5343039;26;20400;-85
2024/04/23 09:01:28;;;;;;;9.77;5.88;;;8.50;99.90;;;;;;5336545;26;20012;-84
2024/04/23 09:03:58;;;;;;;8.18;6.13;;;8.60;99.90;;;;;;5327921;26;20013;-84
2024/04/23 09:06:25;;;;;;;7.55;5.20;;;8.70;99.90;;;;;;5332879;26;20001;-84
2024/04/23 09:08:51;;;;;;;6.97;4.80;;;8.80;99.90;;;;;;5326399;26;20005;-85
2024/04/23 09:11:17;;;;;;;7.43;4.82;;;8.80;99.90;;;;;;5340471;26;20005;-84
2024/04/23 09:13:43;;;;;;;7.25;3.92;;;8.70;99.90;;;;;;5339523;26;20013;-84
2024/04/23 09:16:09;;;;;;;5.82;3.40;;;8.70;99.90;;;;;;5338654;26;20086;-83
2024/04/23 09:18:34;;;;;;;7.45;4.15;;;8.80;99.90;;;;;;5340025;26;20040;-84
2024/04/23 09:21:04;;;;;;;6.75;3.92;;;8.80;99.90;;;;;;5346700;26;20041;-84
2024/04/23 09:23:31;;;;;;;7.18;4.03;;;8.90;99.90;;;;;;5339368;26;20013;-84
2024/04/23 09:26:03;;;;;;;7.88;3.60;;;9.00;99.90;;;;;;5339569;26;20001;-84
2024/04/23 09:28:36;;;;;;;;;;;9.20;99.90;;;;;;5346687;26;20424;-84
2024/04/23 09:31:03;;;;;;;5.55;3.40;;;9.30;99.90;;;;;;5342307;26;19926;-84
2024/04/23 09:33:30;;;;;;;5.32;3.60;;;9.40;99.90;;;;;;5347041;26;20019;-85
2024/04/23 09:36:14;;;;;;;4.57;3.45;;;9.60;99.90;;;;;;5346477;26;20016;-86
2024/04/23 09:38:40;;;;;;;5.80;3.75;;;9.70;99.90;;;;;;5340264;26;20008;-86
2024/04/23 09:41:08;;;;;;;5.47;3.45;;;9.70;99.90;;;;;;5339834;26;20012;-86
2024/04/23 09:43:35;;;;;;;4.70;3.35;;;9.70;99.90;;;;;;5333784;26;19997;-86
2024/04/23 09:46:02;;;;;;;4.15;2.97;;;9.70;99.90;;;;;;5346302;26;19997;-86
2024/04/23 09:48:31;;;;;;;5.63;3.67;;;9.80;99.90;;;;;;5324129;26;20016;-84
2024/04/23 09:51:04;;;;;;;5.45;3.40;;;9.80;99.90;;;;;;5331358;26;20368;-82
2024/04/23 09:53:39;;;;;;;4.53;3.58;;;9.70;99.90;;;;;;5369781;26;20527;-82
2024/04/23 09:56:07;;;;;;;6.38;3.88;;;9.60;99.90;;;;;;5344895;26;20536;-83
2024/04/23 09:58:33;;;;;;;6.70;3.28;;;9.50;99.90;;;;;;5341904;26;20005;-83
2024/04/23 10:01:00;;;;;;;5.32;3.28;;;9.60;99.90;;;;;;5347549;26;20001;-85
2024/04/23 10:03:28;;;;;;;6.55;3.95;;;9.80;99.90;;;;;;5341545;26;20070;-85
2024/04/23 10:06:06;;;;;;;6.28;3.65;;;10.00;99.90;;;;;;5337103;26;20144;-84
2024/04/23 10:08:55;;;;;;;5.47;3.80;;;10.10;99.90;;;;;;5341390;26;20004;-85
2024/04/23 10:11:53;;;;;;;4.90;3.47;;;10.20;99.90;;;;;;5347548;26;20001;-84
2024/04/23 10:14:34;;;;;;;5.00;3.67;;;10.40;99.70;;;;;;5330946;26;20007;-85
2024/04/23 10:17:21;;;;;;;5.93;3.65;;;10.50;98.90;;;;;;5347152;26;20078;-86
2024/04/23 10:19:49;;;;;;;4.95;3.20;;;10.70;98.80;;;;;;5347858;26;20019;-86
2024/04/23 10:22:15;;;;;;;8.27;4.07;;;10.90;98.20;;;;;;5336508;26;20460;-85
2024/04/23 10:24:41;;;;;;;5.88;3.50;;;11.10;96.60;;;;;;5329832;26;20000;-86
2024/04/23 10:27:08;;;;;;;6.55;3.60;;;11.20;96.50;;;;;;5343947;26;20008;-85
2024/04/23 10:29:35;;;;;;;5.30;3.38;;;11.20;95.50;;;;;;5344353;26;20071;-86
2024/04/23 10:32:02;;;;;;;5.88;4.07;;;11.20;94.70;;;;;;5367830;26;20016;-86
2024/04/23 10:34:29;;;;;;;8.07;5.30;;;11.00;94.50;;;;;;5332704;26;20004;-85
2024/04/23 10:36:56;;;;;;;7.75;5.18;;;11.10;94.60;;;;;;5338646;26;20021;-87
2024/04/23 10:39:22;;;;;;;10.48;4.85;;;11.30;94.10;;;;;;5347067;26;20001;-85
2024/04/23 10:41:48;;;;;;;9.02;5.28;;;11.50;93.30;;;;;;5337045;26;20515;-86
2024/04/23 10:44:16;;;;;;;7.60;4.20;;;11.60;93.10;;;;;;5338237;26;20047;-85
2024/04/23 10:46:43;;;;;;;5.57;3.83;;;11.80;91.80;;;;;;5342227;26;20446;-85
2024/04/23 10:49:15;;;;;;;4.90;2.63;;;12.00;91.30;;;;;;5359749;26;20074;-87
2024/04/23 10:51:48;;;;;;;4.32;2.40;;;12.10;90.30;;;;;;5347461;26;20025;-86
2024/04/23 10:54:21;;;;;;;4.38;2.80;;;12.10;90.30;;;;;;5354597;26;20008;-85
2024/04/23 10:57:00;;;;;;;5.40;3.35;;;12.30;89.10;;;;;;5347068;26;20004;-86
2024/04/23 10:59:30;;;;;;;4.95;3.33;;;12.50;89.60;;;;;;5344619;26;20001;-86
2024/04/23 11:02:00;;;;;;;5.10;3.55;;;12.80;87.10;;;;;;5346088;26;20011;-86
2024/04/23 11:04:32;;;;;;;6.10;4.70;;;12.90;87.10;;;;;;5334580;26;20020;-85
2024/04/23 11:07:04;;;;;;;6.70;4.28;;;12.60;85.30;;;;;;5329843;26;20001;-87
2024/04/23 11:09:38;;;;;;;5.88;4.18;;;12.30;86.10;;;;;;5344336;26;20001;-86
2024/04/23 11:12:14;;;;;;;5.47;4.18;;;12.10;86.90;;;;;;5324734;26;20077;-86
2024/04/23 11:14:40;;;;;;;7.07;4.45;;;11.80;86.40;;;;;;5347676;26;20016;-86
2024/04/23 11:17:05;;;;;;;5.63;4.18;;;11.60;87.10;;;;;;5325451;26;19997;-86
2024/04/23 11:19:38;;;;;;;7.05;4.55;;;11.50;86.60;;;;;;5327234;26;20012;-86
2024/04/23 11:22:09;;;;;;;6.75;4.15;;;11.30;86.70;;;;;;5338524;26;20036;-87
2024/04/23 11:24:44;;;;;;;5.47;4.03;;;11.20;87.20;;;;;;5345126;26;20015;-86
2024/04/23 11:27:13;;;;;;;6.38;4.35;;;11.10;87.40;;;;;;5345837;26;20013;-86
2024/04/23 11:29:43;;;;;;;7.20;4.18;;;11.00;87.50;;;;;;5340202;26;20023;-85
2024/04/23 11:32:10;;;;;;;4.47;3.75;;;10.90;87.80;;;;;;5345291;26;20013;-86
2024/04/23 11:34:41;;;;;;;4.90;3.83;;;10.90;87.50;;;;;;5340926;26;20005;-85
2024/04/23 11:37:07;;;;;;;7.15;4.20;;;10.70;87.60;;;;;;5335707;26;20012;-84
2024/04/23 11:39:33;;;;;;;5.80;4.25;;;10.70;87.70;;;;;;5361869;26;20341;-84
2024/04/23 11:41:59;;;;;;;7.78;4.07;;;10.90;87.50;;;;;;5340982;26;20017;-85
2024/04/23 11:44:27;;;;;;;5.00;3.80;;;11.20;88.00;;;;;;5348047;26;20005;-85
2024/04/23 11:46:57;;;;;;;4.53;3.47;;;11.50;87.80;;;;;;5344889;26;20024;-84
2024/04/23 11:49:26;;;;;;;6.88;3.90;;;11.70;86.30;;;;;;5342003;26;19997;-84
2024/04/23 11:51:54;;;;;;;3.42;2.58;;;11.70;85.20;;;;;;5342163;26;20011;-83
2024/04/23 11:54:24;;;;;;;4.50;3.20;;;11.80;84.90;;;;;;5336616;26;21682;-84
2024/04/23 11:56:51;;;;;;;4.93;3.08;;;11.70;83.20;;;;;;5335728;26;20005;-84
2024/04/23 11:59:19;;;;;;;3.47;2.83;;;11.80;83.90;;;;;;5372775;26;20019;-85
2024/04/23 12:01:45;;;;;;;4.75;2.60;;;11.90;83.40;;;;;;5335476;26;20001;-84
2024/04/23 12:04:12;;;;;;;4.30;3.20;;;12.10;83.10;;;;;;5339657;26;20023;-83
2024/04/23 12:06:41;;;;;;;5.20;3.20;;;12.40;83.30;;;;;;5341060;26;20007;-85
2024/04/23 12:09:07;;;;;;;3.65;2.63;;;12.70;82.70;;;;;;5339158;26;20366;-85
2024/04/23 12:11:34;;;;;;;5.22;3.30;;;12.90;82.10;;;;;;5338915;26;19997;-85
2024/04/23 12:14:00;;;;;;;4.70;2.63;;;13.20;81.00;;;;;;5325475;26;19997;-87
2024/04/23 12:16:25;;;;;;;3.45;2.25;;;13.10;79.70;;;;;;5339024;26;20017;-87
2024/04/23 12:18:51;;;;;;;3.67;2.38;;;13.00;79.30;;;;;;5336593;26;20001;-88
2024/04/23 12:21:17;;;;;;;2.85;1.70;;;12.80;77.60;;;;;;5339289;26;20453;-82
2024/04/23 12:23:44;;;;;;;3.20;2.03;;;12.90;77.90;;;;;;5332675;26;20013;-87
2024/04/23 12:26:17;;;;;;;3.10;2.20;;;13.00;75.90;;;;;;5328147;26;20004;-85
2024/04/23 12:28:44;;;;;;;4.05;1.67;;;13.10;77.10;;;;;;5336112;26;20433;-90
2024/04/23 12:31:09;;;;;;;4.35;1.92;;;13.20;76.60;;;;;;5344980;26;20337;-88
2024/04/23 12:33:36;;;;;;;4.30;1.73;;;13.10;74.60;;;;;;5344748;26;20001;-87
2024/04/23 12:36:11;;;;;;;2.78;1.67;;;12.90;74.60;;;;;;5325059;26;20004;-88
2024/04/23 12:38:41;;;;;;;3.90;2.33;;;12.90;75.20;;;;;;5348547;26;20015;-87
2024/04/23 12:41:07;;;;;;;6.03;2.42;;;12.90;76.00;;;;;;5337125;26;20005;-88
2024/04/23 12:43:33;;;;;;;4.75;2.60;;;13.00;75.50;;;;;;5343920;26;20431;-88
2024/04/23 12:45:58;;;;;;;4.28;1.85;;;12.90;73.80;;;;;;5334944;26;20012;-88
2024/04/23 12:48:24;;;;;;;5.00;1.95;;;12.60;74.70;;;;;;5344185;26;20001;-87
2024/04/23 12:50:49;;;;;;;5.13;2.28;;;12.40;74.30;;;;;;5351071;26;20001;-91
2024/04/23 12:53:18;;;;;;;4.45;2.53;;;12.10;74.50;;;;;;5348089;26;20012;-90
2024/04/23 12:55:44;;;;;;;4.03;2.80;;;11.80;75.10;;;;;;5348246;26;20015;-90